sensor_id;sensor_type;location;lat;lon;timestamp;P1;durP1;ratioP1;P2;durP2;ratioP2
37997;SDS011;24079;51.824;4.682;2024-01-11T00:01:57;23.23;;;10.10;;
37997;SDS011;24079;51.824;4.682;2024-01-11T00:04:23;24.88;;;10.57;;
37997;SDS011;24079;51.824;4.682;2024-01-11T00:06:49;25.08;;;11.43;;
37997;SDS011;24079;51.824;4.682;2024-01-11T00:09:15;20.60;;;10.23;;
37997;SDS011;24079;51.824;4.682;2024-01-11T00:11:41;23.90;;;11.13;;
37997;SDS011;24079;51.824;4.682;2024-01-11T00:14:07;23.88;;;10.57;;
37997;SDS011;24079;51.824;4.682;2024-01-11T00:16:32;22.67;;;11.00;;
37997;SDS011;24079;51.824;4.682;2024-01-11T00:18:58;22.95;;;10.60;;
37997;SDS011;24079;51.824;4.682;2024-01-11T00:21:24;21.63;;;10.32;;
37997;SDS011;24079;51.824;4.682;2024-01-11T00:23:49;25.88;;;10.55;;
37997;SDS011;24079;51.824;4.682;2024-01-11T00:26:15;26.13;;;10.45;;
37997;SDS011;24079;51.824;4.682;2024-01-11T00:28:41;26.58;;;10.75;;
37997;SDS011;24079;51.824;4.682;2024-01-11T00:31:06;26.98;;;10.73;;
37997;SDS011;24079;51.824;4.682;2024-01-11T00:33:32;22.58;;;10.88;;
37997;SDS011;24079;51.824;4.682;2024-01-11T00:35:58;21.10;;;10.05;;
37997;SDS011;24079;51.824;4.682;2024-01-11T00:38:23;23.05;;;10.52;;
37997;SDS011;24079;51.824;4.682;2024-01-11T00:40:49;27.48;;;12.25;;
37997;SDS011;24079;51.824;4.682;2024-01-11T00:43:15;23.77;;;10.95;;
37997;SDS011;24079;51.824;4.682;2024-01-11T00:45:40;21.23;;;10.35;;
37997;SDS011;24079;51.824;4.682;2024-01-11T00:48:06;27.65;;;10.75;;
37997;SDS011;24079;51.824;4.682;2024-01-11T00:50:32;24.65;;;10.68;;
37997;SDS011;24079;51.824;4.682;2024-01-11T00:52:57;26.08;;;10.90;;
37997;SDS011;24079;51.824;4.682;2024-01-11T00:55:23;22.10;;;10.40;;
37997;SDS011;24079;51.824;4.682;2024-01-11T00:57:49;24.27;;;10.55;;
37997;SDS011;24079;51.824;4.682;2024-01-11T01:00:15;23.30;;;10.35;;
37997;SDS011;24079;51.824;4.682;2024-01-11T01:02:41;23.90;;;11.60;;
37997;SDS011;24079;51.824;4.682;2024-01-11T01:05:07;25.67;;;10.38;;
37997;SDS011;24079;51.824;4.682;2024-01-11T01:07:33;21.75;;;10.88;;
37997;SDS011;24079;51.824;4.682;2024-01-11T01:09:59;25.27;;;11.05;;
37997;SDS011;24079;51.824;4.682;2024-01-11T01:12:24;23.80;;;11.25;;
37997;SDS011;24079;51.824;4.682;2024-01-11T01:14:50;22.65;;;10.43;;
37997;SDS011;24079;51.824;4.682;2024-01-11T01:17:16;22.50;;;10.35;;
37997;SDS011;24079;51.824;4.682;2024-01-11T01:19:43;22.58;;;10.27;;
37997;SDS011;24079;51.824;4.682;2024-01-11T01:22:09;26.13;;;11.23;;
37997;SDS011;24079;51.824;4.682;2024-01-11T01:24:35;21.00;;;10.27;;
37997;SDS011;24079;51.824;4.682;2024-01-11T01:27:01;23.40;;;10.35;;
37997;SDS011;24079;51.824;4.682;2024-01-11T01:29:27;26.52;;;10.95;;
37997;SDS011;24079;51.824;4.682;2024-01-11T01:31:52;26.20;;;11.48;;
37997;SDS011;24079;51.824;4.682;2024-01-11T01:34:18;24.08;;;11.57;;
37997;SDS011;24079;51.824;4.682;2024-01-11T01:36:44;22.45;;;10.15;;
37997;SDS011;24079;51.824;4.682;2024-01-11T01:39:09;19.27;;;9.50;;
37997;SDS011;24079;51.824;4.682;2024-01-11T01:41:36;24.25;;;10.45;;
37997;SDS011;24079;51.824;4.682;2024-01-11T01:44:01;22.83;;;10.27;;
37997;SDS011;24079;51.824;4.682;2024-01-11T01:46:27;22.75;;;10.27;;
37997;SDS011;24079;51.824;4.682;2024-01-11T01:48:53;20.95;;;9.85;;
37997;SDS011;24079;51.824;4.682;2024-01-11T01:51:20;24.17;;;11.07;;
37997;SDS011;24079;51.824;4.682;2024-01-11T01:53:47;23.13;;;11.45;;
37997;SDS011;24079;51.824;4.682;2024-01-11T01:56:15;24.25;;;11.00;;
37997;SDS011;24079;51.824;4.682;2024-01-11T01:58:42;21.88;;;10.13;;
37997;SDS011;24079;51.824;4.682;2024-01-11T02:01:08;24.55;;;10.88;;
37997;SDS011;24079;51.824;4.682;2024-01-11T02:03:34;21.85;;;9.82;;
37997;SDS011;24079;51.824;4.682;2024-01-11T02:06:01;20.98;;;10.50;;
37997;SDS011;24079;51.824;4.682;2024-01-11T02:08:28;24.90;;;10.80;;
37997;SDS011;24079;51.824;4.682;2024-01-11T02:10:55;22.98;;;10.32;;
37997;SDS011;24079;51.824;4.682;2024-01-11T02:13:22;24.33;;;10.95;;
37997;SDS011;24079;51.824;4.682;2024-01-11T02:15:48;25.77;;;10.30;;
37997;SDS011;24079;51.824;4.682;2024-01-11T02:18:14;22.38;;;10.85;;
37997;SDS011;24079;51.824;4.682;2024-01-11T02:20:40;22.40;;;10.20;;
37997;SDS011;24079;51.824;4.682;2024-01-11T02:23:06;25.08;;;11.40;;
37997;SDS011;24079;51.824;4.682;2024-01-11T02:25:37;26.90;;;10.68;;
37997;SDS011;24079;51.824;4.682;2024-01-11T02:28:03;19.20;;;10.38;;
37997;SDS011;24079;51.824;4.682;2024-01-11T02:30:28;25.00;;;10.85;;
37997;SDS011;24079;51.824;4.682;2024-01-11T02:32:54;23.25;;;10.75;;
37997;SDS011;24079;51.824;4.682;2024-01-11T02:35:20;22.40;;;10.15;;
37997;SDS011;24079;51.824;4.682;2024-01-11T02:37:46;24.55;;;10.75;;
37997;SDS011;24079;51.824;4.682;2024-01-11T02:40:13;27.20;;;11.73;;
37997;SDS011;24079;51.824;4.682;2024-01-11T02:42:40;24.98;;;11.75;;
37997;SDS011;24079;51.824;4.682;2024-01-11T02:45:05;26.05;;;12.55;;
37997;SDS011;24079;51.824;4.682;2024-01-11T02:47:32;22.80;;;10.77;;
37997;SDS011;24079;51.824;4.682;2024-01-11T02:49:57;22.25;;;10.75;;
37997;SDS011;24079;51.824;4.682;2024-01-11T02:52:23;23.45;;;11.02;;
37997;SDS011;24079;51.824;4.682;2024-01-11T02:54:49;33.22;;;11.93;;
37997;SDS011;24079;51.824;4.682;2024-01-11T02:57:14;26.67;;;11.75;;
37997;SDS011;24079;51.824;4.682;2024-01-11T02:59:40;21.25;;;10.38;;
37997;SDS011;24079;51.824;4.682;2024-01-11T03:02:07;24.90;;;11.60;;
37997;SDS011;24079;51.824;4.682;2024-01-11T03:04:33;23.10;;;11.07;;
37997;SDS011;24079;51.824;4.682;2024-01-11T03:06:58;26.85;;;11.98;;
37997;SDS011;24079;51.824;4.682;2024-01-11T03:09:24;31.13;;;12.50;;
37997;SDS011;24079;51.824;4.682;2024-01-11T03:11:50;25.88;;;10.60;;
37997;SDS011;24079;51.824;4.682;2024-01-11T03:14:15;25.88;;;11.57;;
37997;SDS011;24079;51.824;4.682;2024-01-11T03:16:41;26.55;;;11.77;;
37997;SDS011;24079;51.824;4.682;2024-01-11T03:19:07;28.58;;;12.13;;
37997;SDS011;24079;51.824;4.682;2024-01-11T03:21:33;23.63;;;10.73;;
37997;SDS011;24079;51.824;4.682;2024-01-11T03:23:58;28.88;;;11.90;;
37997;SDS011;24079;51.824;4.682;2024-01-11T03:26:25;23.90;;;11.27;;
37997;SDS011;24079;51.824;4.682;2024-01-11T03:28:50;26.80;;;11.40;;
37997;SDS011;24079;51.824;4.682;2024-01-11T03:31:16;23.58;;;11.68;;
37997;SDS011;24079;51.824;4.682;2024-01-11T03:33:42;26.63;;;12.13;;
37997;SDS011;24079;51.824;4.682;2024-01-11T03:36:10;27.25;;;12.10;;
37997;SDS011;24079;51.824;4.682;2024-01-11T03:38:36;28.38;;;12.32;;
37997;SDS011;24079;51.824;4.682;2024-01-11T03:41:07;24.15;;;11.82;;
37997;SDS011;24079;51.824;4.682;2024-01-11T03:43:34;27.38;;;12.13;;
37997;SDS011;24079;51.824;4.682;2024-01-11T03:45:59;22.83;;;11.88;;
37997;SDS011;24079;51.824;4.682;2024-01-11T03:48:25;26.77;;;11.30;;
37997;SDS011;24079;51.824;4.682;2024-01-11T03:50:51;28.63;;;11.88;;
37997;SDS011;24079;51.824;4.682;2024-01-11T03:53:17;23.73;;;11.60;;
37997;SDS011;24079;51.824;4.682;2024-01-11T03:55:45;31.23;;;13.27;;
37997;SDS011;24079;51.824;4.682;2024-01-11T03:58:11;28.33;;;13.18;;
37997;SDS011;24079;51.824;4.682;2024-01-11T04:00:37;25.60;;;11.68;;
37997;SDS011;24079;51.824;4.682;2024-01-11T04:03:03;25.20;;;12.02;;
37997;SDS011;24079;51.824;4.682;2024-01-11T04:05:31;28.70;;;11.60;;
37997;SDS011;24079;51.824;4.682;2024-01-11T04:07:56;26.08;;;11.95;;
37997;SDS011;24079;51.824;4.682;2024-01-11T04:10:22;23.70;;;11.55;;
37997;SDS011;24079;51.824;4.682;2024-01-11T04:12:47;27.98;;;12.77;;
37997;SDS011;24079;51.824;4.682;2024-01-11T04:15:13;25.73;;;11.43;;
37997;SDS011;24079;51.824;4.682;2024-01-11T04:17:39;25.15;;;11.90;;
37997;SDS011;24079;51.824;4.682;2024-01-11T04:20:06;29.65;;;12.45;;
37997;SDS011;24079;51.824;4.682;2024-01-11T04:22:33;29.92;;;13.02;;
37997;SDS011;24079;51.824;4.682;2024-01-11T04:24:59;27.83;;;11.65;;
37997;SDS011;24079;51.824;4.682;2024-01-11T04:27:25;26.75;;;12.10;;
37997;SDS011;24079;51.824;4.682;2024-01-11T04:29:51;29.42;;;12.65;;
37997;SDS011;24079;51.824;4.682;2024-01-11T04:32:16;29.15;;;12.70;;
37997;SDS011;24079;51.824;4.682;2024-01-11T04:34:42;31.08;;;13.32;;
37997;SDS011;24079;51.824;4.682;2024-01-11T04:37:08;31.35;;;14.07;;
37997;SDS011;24079;51.824;4.682;2024-01-11T04:39:33;31.65;;;13.00;;
37997;SDS011;24079;51.824;4.682;2024-01-11T04:41:59;27.42;;;12.77;;
37997;SDS011;24079;51.824;4.682;2024-01-11T04:44:25;31.77;;;13.82;;
37997;SDS011;24079;51.824;4.682;2024-01-11T04:46:51;33.30;;;14.90;;
37997;SDS011;24079;51.824;4.682;2024-01-11T04:49:17;32.45;;;13.48;;
37997;SDS011;24079;51.824;4.682;2024-01-11T04:51:42;29.52;;;13.27;;
37997;SDS011;24079;51.824;4.682;2024-01-11T04:54:08;28.42;;;13.35;;
37997;SDS011;24079;51.824;4.682;2024-01-11T04:56:34;27.08;;;12.93;;
37997;SDS011;24079;51.824;4.682;2024-01-11T04:58:59;30.90;;;14.52;;
37997;SDS011;24079;51.824;4.682;2024-01-11T05:01:25;29.08;;;14.18;;
37997;SDS011;24079;51.824;4.682;2024-01-11T05:03:51;31.42;;;14.30;;
37997;SDS011;24079;51.824;4.682;2024-01-11T05:08:47;30.35;;;14.30;;
37997;SDS011;24079;51.824;4.682;2024-01-11T05:11:15;30.35;;;14.63;;
37997;SDS011;24079;51.824;4.682;2024-01-11T05:13:41;32.40;;;14.57;;
37997;SDS011;24079;51.824;4.682;2024-01-11T05:16:07;30.77;;;14.10;;
37997;SDS011;24079;51.824;4.682;2024-01-11T05:18:40;36.17;;;17.08;;
37997;SDS011;24079;51.824;4.682;2024-01-11T05:21:06;29.85;;;14.15;;
37997;SDS011;24079;51.824;4.682;2024-01-11T05:23:31;31.55;;;14.85;;
37997;SDS011;24079;51.824;4.682;2024-01-11T05:25:57;31.83;;;16.20;;
37997;SDS011;24079;51.824;4.682;2024-01-11T05:28:23;36.55;;;16.90;;
37997;SDS011;24079;51.824;4.682;2024-01-11T05:30:49;33.72;;;15.80;;
37997;SDS011;24079;51.824;4.682;2024-01-11T05:33:14;32.15;;;15.80;;
37997;SDS011;24079;51.824;4.682;2024-01-11T05:35:40;35.20;;;16.15;;
37997;SDS011;24079;51.824;4.682;2024-01-11T05:38:06;37.95;;;16.00;;
37997;SDS011;24079;51.824;4.682;2024-01-11T05:40:31;35.92;;;16.55;;
37997;SDS011;24079;51.824;4.682;2024-01-11T05:42:57;31.63;;;14.73;;
37997;SDS011;24079;51.824;4.682;2024-01-11T05:45:22;36.83;;;17.13;;
37997;SDS011;24079;51.824;4.682;2024-01-11T05:47:48;36.95;;;17.20;;
37997;SDS011;24079;51.824;4.682;2024-01-11T05:50:14;36.10;;;16.67;;
37997;SDS011;24079;51.824;4.682;2024-01-11T05:52:40;34.97;;;17.05;;
37997;SDS011;24079;51.824;4.682;2024-01-11T05:55:05;34.63;;;16.75;;
37997;SDS011;24079;51.824;4.682;2024-01-11T05:57:31;35.83;;;16.60;;
37997;SDS011;24079;51.824;4.682;2024-01-11T05:59:57;39.80;;;18.80;;
37997;SDS011;24079;51.824;4.682;2024-01-11T06:02:22;36.33;;;16.77;;
37997;SDS011;24079;51.824;4.682;2024-01-11T06:04:48;36.85;;;17.27;;
37997;SDS011;24079;51.824;4.682;2024-01-11T06:07:15;36.10;;;17.17;;
37997;SDS011;24079;51.824;4.682;2024-01-11T06:09:41;40.67;;;18.80;;
37997;SDS011;24079;51.824;4.682;2024-01-11T06:12:07;36.22;;;17.88;;
37997;SDS011;24079;51.824;4.682;2024-01-11T06:14:34;38.10;;;18.27;;
37997;SDS011;24079;51.824;4.682;2024-01-11T06:17:00;38.03;;;20.02;;
37997;SDS011;24079;51.824;4.682;2024-01-11T06:19:25;39.13;;;19.80;;
37997;SDS011;24079;51.824;4.682;2024-01-11T06:21:51;39.50;;;18.45;;
37997;SDS011;24079;51.824;4.682;2024-01-11T06:24:17;39.00;;;18.75;;
37997;SDS011;24079;51.824;4.682;2024-01-11T06:26:42;40.95;;;18.90;;
37997;SDS011;24079;51.824;4.682;2024-01-11T06:29:08;39.00;;;19.90;;
37997;SDS011;24079;51.824;4.682;2024-01-11T06:31:33;44.90;;;19.90;;
37997;SDS011;24079;51.824;4.682;2024-01-11T06:33:59;40.50;;;19.90;;
37997;SDS011;24079;51.824;4.682;2024-01-11T06:36:24;41.17;;;18.23;;
37997;SDS011;24079;51.824;4.682;2024-01-11T06:38:50;42.80;;;20.58;;
37997;SDS011;24079;51.824;4.682;2024-01-11T06:41:16;44.85;;;20.35;;
37997;SDS011;24079;51.824;4.682;2024-01-11T06:43:41;37.42;;;18.77;;
37997;SDS011;24079;51.824;4.682;2024-01-11T06:46:07;44.80;;;20.90;;
37997;SDS011;24079;51.824;4.682;2024-01-11T06:48:34;40.22;;;20.90;;
37997;SDS011;24079;51.824;4.682;2024-01-11T06:50:59;43.80;;;21.05;;
37997;SDS011;24079;51.824;4.682;2024-01-11T06:53:25;41.80;;;21.00;;
37997;SDS011;24079;51.824;4.682;2024-01-11T06:55:51;41.75;;;20.67;;
37997;SDS011;24079;51.824;4.682;2024-01-11T06:58:17;45.47;;;21.38;;
37997;SDS011;24079;51.824;4.682;2024-01-11T07:00:45;43.28;;;21.77;;
37997;SDS011;24079;51.824;4.682;2024-01-11T07:03:11;44.85;;;21.95;;
37997;SDS011;24079;51.824;4.682;2024-01-11T07:05:37;43.85;;;21.63;;
37997;SDS011;24079;51.824;4.682;2024-01-11T07:08:02;44.75;;;22.20;;
37997;SDS011;24079;51.824;4.682;2024-01-11T07:10:29;48.08;;;23.75;;
37997;SDS011;24079;51.824;4.682;2024-01-11T07:12:54;44.58;;;23.45;;
37997;SDS011;24079;51.824;4.682;2024-01-11T07:15:20;46.00;;;23.17;;
37997;SDS011;24079;51.824;4.682;2024-01-11T07:17:46;50.72;;;23.48;;
37997;SDS011;24079;51.824;4.682;2024-01-11T07:20:11;47.60;;;24.05;;
37997;SDS011;24079;51.824;4.682;2024-01-11T07:22:38;45.05;;;23.05;;
37997;SDS011;24079;51.824;4.682;2024-01-11T07:25:04;48.95;;;23.80;;
37997;SDS011;24079;51.824;4.682;2024-01-11T07:27:30;49.40;;;22.73;;
37997;SDS011;24079;51.824;4.682;2024-01-11T07:29:56;48.45;;;23.88;;
37997;SDS011;24079;51.824;4.682;2024-01-11T07:32:22;46.83;;;24.13;;
37997;SDS011;24079;51.824;4.682;2024-01-11T07:34:48;54.83;;;25.50;;
37997;SDS011;24079;51.824;4.682;2024-01-11T07:37:14;48.95;;;25.02;;
37997;SDS011;24079;51.824;4.682;2024-01-11T07:39:40;52.05;;;25.85;;
37997;SDS011;24079;51.824;4.682;2024-01-11T07:42:06;53.03;;;26.40;;
37997;SDS011;24079;51.824;4.682;2024-01-11T07:44:33;49.42;;;25.55;;
37997;SDS011;24079;51.824;4.682;2024-01-11T07:46:59;49.05;;;24.98;;
37997;SDS011;24079;51.824;4.682;2024-01-11T07:49:24;52.70;;;25.63;;
37997;SDS011;24079;51.824;4.682;2024-01-11T07:51:50;50.90;;;27.17;;
37997;SDS011;24079;51.824;4.682;2024-01-11T07:54:15;53.17;;;25.42;;
37997;SDS011;24079;51.824;4.682;2024-01-11T07:56:41;55.03;;;27.20;;
37997;SDS011;24079;51.824;4.682;2024-01-11T07:59:07;55.22;;;27.38;;
37997;SDS011;24079;51.824;4.682;2024-01-11T08:01:33;54.70;;;25.88;;
37997;SDS011;24079;51.824;4.682;2024-01-11T08:04:00;53.22;;;27.70;;
37997;SDS011;24079;51.824;4.682;2024-01-11T08:06:27;52.20;;;26.42;;
37997;SDS011;24079;51.824;4.682;2024-01-11T08:08:53;52.47;;;26.55;;
37997;SDS011;24079;51.824;4.682;2024-01-11T08:11:19;55.58;;;27.58;;
37997;SDS011;24079;51.824;4.682;2024-01-11T08:13:45;54.38;;;27.33;;
37997;SDS011;24079;51.824;4.682;2024-01-11T08:16:15;56.88;;;26.83;;
37997;SDS011;24079;51.824;4.682;2024-01-11T08:18:44;52.47;;;26.77;;
37997;SDS011;24079;51.824;4.682;2024-01-11T08:21:11;54.53;;;26.65;;
37997;SDS011;24079;51.824;4.682;2024-01-11T08:23:40;53.55;;;25.65;;
37997;SDS011;24079;51.824;4.682;2024-01-11T08:26:13;55.05;;;27.67;;
37997;SDS011;24079;51.824;4.682;2024-01-11T08:28:39;55.83;;;27.27;;
37997;SDS011;24079;51.824;4.682;2024-01-11T08:31:06;54.47;;;27.23;;
37997;SDS011;24079;51.824;4.682;2024-01-11T08:33:32;54.33;;;27.73;;
37997;SDS011;24079;51.824;4.682;2024-01-11T08:35:57;54.15;;;27.90;;
37997;SDS011;24079;51.824;4.682;2024-01-11T08:38:23;50.28;;;26.85;;
37997;SDS011;24079;51.824;4.682;2024-01-11T08:40:49;53.88;;;26.73;;
37997;SDS011;24079;51.824;4.682;2024-01-11T08:43:15;57.17;;;28.48;;
37997;SDS011;24079;51.824;4.682;2024-01-11T08:45:41;51.60;;;26.55;;
37997;SDS011;24079;51.824;4.682;2024-01-11T08:48:08;56.65;;;29.08;;
37997;SDS011;24079;51.824;4.682;2024-01-11T08:50:34;56.00;;;27.40;;
37997;SDS011;24079;51.824;4.682;2024-01-11T08:53:00;51.30;;;27.08;;
37997;SDS011;24079;51.824;4.682;2024-01-11T08:55:26;53.30;;;28.00;;
37997;SDS011;24079;51.824;4.682;2024-01-11T08:57:51;54.30;;;27.83;;
37997;SDS011;24079;51.824;4.682;2024-01-11T09:00:17;54.58;;;28.33;;
37997;SDS011;24079;51.824;4.682;2024-01-11T09:02:43;56.97;;;29.27;;
37997;SDS011;24079;51.824;4.682;2024-01-11T09:05:10;51.25;;;27.50;;
37997;SDS011;24079;51.824;4.682;2024-01-11T09:07:36;55.25;;;27.83;;
37997;SDS011;24079;51.824;4.682;2024-01-11T09:10:02;55.00;;;28.15;;
37997;SDS011;24079;51.824;4.682;2024-01-11T09:12:28;55.35;;;28.58;;
37997;SDS011;24079;51.824;4.682;2024-01-11T09:14:53;57.47;;;30.15;;
37997;SDS011;24079;51.824;4.682;2024-01-11T09:17:19;55.92;;;28.90;;
37997;SDS011;24079;51.824;4.682;2024-01-11T09:19:46;56.97;;;29.95;;
37997;SDS011;24079;51.824;4.682;2024-01-11T09:22:12;54.60;;;28.83;;
37997;SDS011;24079;51.824;4.682;2024-01-11T09:24:37;52.65;;;27.58;;
37997;SDS011;24079;51.824;4.682;2024-01-11T09:27:03;55.13;;;28.67;;
37997;SDS011;24079;51.824;4.682;2024-01-11T09:29:29;61.75;;;30.08;;
37997;SDS011;24079;51.824;4.682;2024-01-11T09:31:55;55.17;;;29.15;;
37997;SDS011;24079;51.824;4.682;2024-01-11T09:34:20;54.75;;;28.38;;
37997;SDS011;24079;51.824;4.682;2024-01-11T09:36:46;58.47;;;28.75;;
37997;SDS011;24079;51.824;4.682;2024-01-11T09:39:12;57.03;;;29.98;;
37997;SDS011;24079;51.824;4.682;2024-01-11T09:41:40;56.22;;;30.65;;
37997;SDS011;24079;51.824;4.682;2024-01-11T09:44:12;56.15;;;30.33;;
37997;SDS011;24079;51.824;4.682;2024-01-11T09:46:39;57.75;;;28.85;;
37997;SDS011;24079;51.824;4.682;2024-01-11T09:49:05;55.53;;;29.92;;
37997;SDS011;24079;51.824;4.682;2024-01-11T09:51:32;58.47;;;31.25;;
37997;SDS011;24079;51.824;4.682;2024-01-11T09:54:01;51.47;;;28.88;;
37997;SDS011;24079;51.824;4.682;2024-01-11T09:56:28;54.85;;;28.98;;
37997;SDS011;24079;51.824;4.682;2024-01-11T09:58:54;55.83;;;29.33;;
37997;SDS011;24079;51.824;4.682;2024-01-11T10:01:19;52.45;;;28.35;;
37997;SDS011;24079;51.824;4.682;2024-01-11T10:03:46;51.13;;;28.25;;
37997;SDS011;24079;51.824;4.682;2024-01-11T10:06:13;49.13;;;26.48;;
37997;SDS011;24079;51.824;4.682;2024-01-11T10:08:41;50.95;;;27.83;;
37997;SDS011;24079;51.824;4.682;2024-01-11T10:11:07;54.60;;;28.35;;
37997;SDS011;24079;51.824;4.682;2024-01-11T10:13:33;51.13;;;26.35;;
37997;SDS011;24079;51.824;4.682;2024-01-11T10:16:10;46.20;;;25.05;;
37997;SDS011;24079;51.824;4.682;2024-01-11T10:18:40;44.63;;;24.63;;
37997;SDS011;24079;51.824;4.682;2024-01-11T10:21:07;44.20;;;24.38;;
37997;SDS011;24079;51.824;4.682;2024-01-11T10:23:34;50.65;;;25.45;;
37997;SDS011;24079;51.824;4.682;2024-01-11T10:26:04;47.38;;;24.13;;
37997;SDS011;24079;51.824;4.682;2024-01-11T10:28:30;51.08;;;26.23;;
37997;SDS011;24079;51.824;4.682;2024-01-11T10:30:56;48.55;;;24.38;;
37997;SDS011;24079;51.824;4.682;2024-01-11T10:33:22;44.45;;;24.17;;
37997;SDS011;24079;51.824;4.682;2024-01-11T10:35:49;47.55;;;23.27;;
37997;SDS011;24079;51.824;4.682;2024-01-11T10:38:15;44.50;;;24.90;;
37997;SDS011;24079;51.824;4.682;2024-01-11T10:40:42;46.60;;;24.30;;
37997;SDS011;24079;51.824;4.682;2024-01-11T10:43:09;47.90;;;24.13;;
37997;SDS011;24079;51.824;4.682;2024-01-11T10:45:41;43.47;;;24.70;;
37997;SDS011;24079;51.824;4.682;2024-01-11T10:48:15;44.65;;;24.30;;
37997;SDS011;24079;51.824;4.682;2024-01-11T10:50:42;44.83;;;22.85;;
37997;SDS011;24079;51.824;4.682;2024-01-11T10:55:59;37.60;;;20.52;;
37997;SDS011;24079;51.824;4.682;2024-01-11T10:58:26;34.85;;;19.38;;
37997;SDS011;24079;51.824;4.682;2024-01-11T11:00:53;39.22;;;20.20;;
37997;SDS011;24079;51.824;4.682;2024-01-11T11:03:25;39.10;;;19.85;;
37997;SDS011;24079;51.824;4.682;2024-01-11T11:05:54;35.00;;;19.25;;
37997;SDS011;24079;51.824;4.682;2024-01-11T11:08:23;38.80;;;19.55;;
37997;SDS011;24079;51.824;4.682;2024-01-11T11:10:53;37.45;;;20.15;;
37997;SDS011;24079;51.824;4.682;2024-01-11T11:13:24;35.70;;;19.30;;
37997;SDS011;24079;51.824;4.682;2024-01-11T11:15:51;35.63;;;20.08;;
37997;SDS011;24079;51.824;4.682;2024-01-11T11:18:18;44.17;;;21.38;;
37997;SDS011;24079;51.824;4.682;2024-01-11T11:20:46;37.75;;;19.63;;
37997;SDS011;24079;51.824;4.682;2024-01-11T11:23:16;41.15;;;22.10;;
37997;SDS011;24079;51.824;4.682;2024-01-11T11:25:47;41.40;;;21.50;;
37997;SDS011;24079;51.824;4.682;2024-01-11T11:28:16;39.45;;;21.58;;
37997;SDS011;24079;51.824;4.682;2024-01-11T11:30:43;37.80;;;21.85;;
37997;SDS011;24079;51.824;4.682;2024-01-11T11:33:10;39.80;;;21.80;;
37997;SDS011;24079;51.824;4.682;2024-01-11T11:35:41;41.63;;;21.77;;
37997;SDS011;24079;51.824;4.682;2024-01-11T11:38:07;38.92;;;21.58;;
37997;SDS011;24079;51.824;4.682;2024-01-11T11:40:37;43.72;;;22.85;;
37997;SDS011;24079;51.824;4.682;2024-01-11T11:43:10;41.88;;;22.17;;
37997;SDS011;24079;51.824;4.682;2024-01-11T11:45:36;39.33;;;22.73;;
37997;SDS011;24079;51.824;4.682;2024-01-11T11:51:01;44.00;;;21.77;;
37997;SDS011;24079;51.824;4.682;2024-01-11T11:53:35;35.75;;;20.35;;
37997;SDS011;24079;51.824;4.682;2024-01-11T11:56:02;39.58;;;23.38;;
37997;SDS011;24079;51.824;4.682;2024-01-11T11:58:29;34.75;;;20.92;;
37997;SDS011;24079;51.824;4.682;2024-01-11T12:00:56;38.65;;;22.52;;
37997;SDS011;24079;51.824;4.682;2024-01-11T12:03:31;38.65;;;20.83;;
37997;SDS011;24079;51.824;4.682;2024-01-11T12:05:58;39.33;;;21.02;;
37997;SDS011;24079;51.824;4.682;2024-01-11T12:08:25;37.15;;;21.65;;
37997;SDS011;24079;51.824;4.682;2024-01-11T12:10:51;42.33;;;21.63;;
37997;SDS011;24079;51.824;4.682;2024-01-11T12:13:18;37.63;;;21.50;;
37997;SDS011;24079;51.824;4.682;2024-01-11T12:15:44;36.10;;;21.35;;
37997;SDS011;24079;51.824;4.682;2024-01-11T12:18:11;37.85;;;20.38;;
37997;SDS011;24079;51.824;4.682;2024-01-11T12:20:37;37.08;;;21.58;;
37997;SDS011;24079;51.824;4.682;2024-01-11T12:23:03;34.63;;;20.52;;
37997;SDS011;24079;51.824;4.682;2024-01-11T12:25:30;33.92;;;20.58;;
37997;SDS011;24079;51.824;4.682;2024-01-11T12:27:57;38.47;;;21.23;;
37997;SDS011;24079;51.824;4.682;2024-01-11T12:30:24;31.75;;;19.70;;
37997;SDS011;24079;51.824;4.682;2024-01-11T12:32:53;35.30;;;20.35;;
37997;SDS011;24079;51.824;4.682;2024-01-11T12:35:20;34.70;;;20.30;;
37997;SDS011;24079;51.824;4.682;2024-01-11T12:37:53;32.35;;;19.10;;
37997;SDS011;24079;51.824;4.682;2024-01-11T12:40:27;31.02;;;18.73;;
37997;SDS011;24079;51.824;4.682;2024-01-11T12:42:53;32.00;;;18.77;;
37997;SDS011;24079;51.824;4.682;2024-01-11T12:45:19;34.28;;;19.80;;
37997;SDS011;24079;51.824;4.682;2024-01-11T12:47:46;31.65;;;18.50;;
37997;SDS011;24079;51.824;4.682;2024-01-11T12:50:12;31.92;;;19.17;;
37997;SDS011;24079;51.824;4.682;2024-01-11T12:52:38;32.45;;;19.00;;
37997;SDS011;24079;51.824;4.682;2024-01-11T12:55:07;33.10;;;19.02;;
37997;SDS011;24079;51.824;4.682;2024-01-11T12:57:43;29.52;;;18.27;;
37997;SDS011;24079;51.824;4.682;2024-01-11T13:00:10;32.17;;;18.45;;
37997;SDS011;24079;51.824;4.682;2024-01-11T13:02:37;31.30;;;18.35;;
37997;SDS011;24079;51.824;4.682;2024-01-11T13:05:03;32.20;;;18.42;;
37997;SDS011;24079;51.824;4.682;2024-01-11T13:07:32;35.75;;;17.13;;
37997;SDS011;24079;51.824;4.682;2024-01-11T13:10:02;29.17;;;17.00;;
37997;SDS011;24079;51.824;4.682;2024-01-11T13:12:29;30.08;;;17.13;;
37997;SDS011;24079;51.824;4.682;2024-01-11T13:14:56;32.05;;;17.98;;
37997;SDS011;24079;51.824;4.682;2024-01-11T13:17:22;27.77;;;16.42;;
37997;SDS011;24079;51.824;4.682;2024-01-11T13:19:48;29.80;;;17.05;;
37997;SDS011;24079;51.824;4.682;2024-01-11T13:22:14;28.05;;;16.95;;
37997;SDS011;24079;51.824;4.682;2024-01-11T13:24:40;26.58;;;16.13;;
37997;SDS011;24079;51.824;4.682;2024-01-11T13:27:05;26.48;;;15.75;;
37997;SDS011;24079;51.824;4.682;2024-01-11T13:29:31;27.45;;;17.10;;
37997;SDS011;24079;51.824;4.682;2024-01-11T13:31:57;30.05;;;17.23;;
37997;SDS011;24079;51.824;4.682;2024-01-11T13:34:22;29.23;;;17.63;;
37997;SDS011;24079;51.824;4.682;2024-01-11T13:36:48;25.50;;;15.43;;
37997;SDS011;24079;51.824;4.682;2024-01-11T13:39:14;26.85;;;15.15;;
37997;SDS011;24079;51.824;4.682;2024-01-11T13:41:43;28.48;;;16.45;;
37997;SDS011;24079;51.824;4.682;2024-01-11T13:44:09;28.35;;;15.98;;
37997;SDS011;24079;51.824;4.682;2024-01-11T13:46:35;24.67;;;15.38;;
37997;SDS011;24079;51.824;4.682;2024-01-11T13:49:00;25.70;;;16.23;;
37997;SDS011;24079;51.824;4.682;2024-01-11T13:51:27;27.27;;;16.00;;
37997;SDS011;24079;51.824;4.682;2024-01-11T13:53:53;25.95;;;14.73;;
37997;SDS011;24079;51.824;4.682;2024-01-11T13:56:19;25.63;;;15.50;;
37997;SDS011;24079;51.824;4.682;2024-01-11T13:58:44;26.73;;;16.40;;
37997;SDS011;24079;51.824;4.682;2024-01-11T14:01:11;28.20;;;15.55;;
37997;SDS011;24079;51.824;4.682;2024-01-11T14:03:38;26.27;;;15.00;;
37997;SDS011;24079;51.824;4.682;2024-01-11T14:06:04;24.50;;;15.38;;
37997;SDS011;24079;51.824;4.682;2024-01-11T14:08:30;25.73;;;15.10;;
37997;SDS011;24079;51.824;4.682;2024-01-11T14:10:55;24.38;;;14.70;;
37997;SDS011;24079;51.824;4.682;2024-01-11T14:13:21;28.52;;;16.95;;
37997;SDS011;24079;51.824;4.682;2024-01-11T14:15:46;27.27;;;15.90;;
37997;SDS011;24079;51.824;4.682;2024-01-11T14:18:13;29.42;;;16.85;;
37997;SDS011;24079;51.824;4.682;2024-01-11T14:20:39;32.95;;;18.13;;
37997;SDS011;24079;51.824;4.682;2024-01-11T14:23:04;27.70;;;16.45;;
37997;SDS011;24079;51.824;4.682;2024-01-11T14:25:30;27.30;;;15.77;;